createdAt,value
2023-05-07T00:00:35.870Z,1.45
2023-05-07T00:03:44.571Z,1.40
2023-05-07T00:06:52.560Z,1.42
2023-05-07T00:10:00.516Z,1.70
2023-05-07T00:13:08.405Z,1.52
2023-05-07T00:16:17.729Z,1.48
2023-05-07T00:19:25.552Z,1.67
2023-05-07T00:22:33.513Z,1.80
2023-05-07T00:25:41.355Z,1.85
2023-05-07T00:28:49.102Z,1.63
2023-05-07T00:31:58.550Z,1.35
2023-05-07T00:35:07.521Z,1.83
2023-05-07T00:38:15.553Z,1.60
2023-05-07T00:41:23.564Z,1.50
2023-05-07T00:44:31.624Z,2.00
2023-05-07T00:47:41.015Z,1.30
2023-05-07T00:50:49.114Z,1.60
2023-05-07T00:53:57.115Z,1.63
2023-05-07T00:57:05.441Z,1.58
2023-05-07T01:00:14.896Z,1.45
2023-05-07T01:03:24.409Z,1.65
2023-05-07T01:06:32.646Z,1.55
2023-05-07T01:09:41.080Z,1.52
2023-05-07T01:12:49.091Z,1.67
2023-05-07T01:15:57.114Z,8.52
2023-05-07T01:19:06.361Z,55.78
2023-05-07T01:22:15.559Z,38.22
2023-05-07T01:25:32.611Z,27.33
2023-05-07T01:28:42.532Z,24.77
2023-05-07T01:31:50.298Z,59.17
2023-05-07T01:34:58.163Z,24.33
2023-05-07T01:38:07.071Z,43.00
2023-05-07T01:41:16.292Z,17.75
2023-05-07T01:44:24.229Z,30.85
2023-05-07T01:47:32.305Z,13.93
2023-05-07T01:50:40.275Z,4.32
2023-05-07T01:53:51.649Z,28.42
2023-05-07T01:57:02.427Z,18.30
2023-05-07T02:00:11.672Z,62.97
2023-05-07T02:03:26.866Z,15.38
2023-05-07T02:06:43.449Z,8.50
2023-05-07T02:09:53.192Z,10.15
2023-05-07T02:13:03.302Z,12.38
2023-05-07T02:16:11.839Z,9.70
2023-05-07T02:19:22.110Z,11.77
2023-05-07T02:22:30.345Z,15.43
2023-05-07T02:25:38.403Z,20.13
2023-05-07T02:28:48.272Z,18.30
2023-05-07T02:31:56.580Z,8.02
2023-05-07T02:35:05.228Z,18.77
2023-05-07T02:38:13.276Z,42.75
2023-05-07T02:41:22.418Z,55.22
2023-05-07T02:44:32.595Z,55.83
2023-05-07T02:47:40.769Z,77.90
2023-05-07T02:50:48.784Z,66.35
2023-05-07T02:53:57.219Z,92.25
2023-05-07T02:57:05.413Z,109.10
2023-05-07T03:00:16.642Z,109.63
2023-05-07T03:03:32.194Z,79.78
2023-05-07T03:06:39.985Z,108.43
2023-05-07T03:09:48.103Z,35.22
2023-05-07T03:12:56.474Z,43.92
2023-05-07T03:16:06.503Z,12.90
2023-05-07T03:19:14.816Z,42.40
2023-05-07T03:22:22.737Z,59.65
2023-05-07T03:25:31.896Z,18.35
2023-05-07T03:28:39.819Z,82.32
2023-05-07T03:31:53.255Z,30.73
2023-05-07T03:35:01.170Z,16.50
2023-05-07T03:38:09.395Z,22.08
2023-05-07T03:41:19.133Z,10.98
2023-05-07T03:44:28.174Z,24.17
2023-05-07T03:47:37.706Z,38.08
2023-05-07T03:50:45.867Z,54.97
2023-05-07T03:53:54.655Z,71.28
2023-05-07T03:57:04.611Z,60.10
2023-05-07T04:00:14.322Z,92.63
2023-05-07T04:03:32.736Z,128.05
2023-05-07T04:06:42.370Z,106.97
2023-05-07T04:09:50.908Z,97.35
2023-05-07T04:12:59.261Z,152.63
2023-05-07T04:16:08.782Z,75.85
2023-05-07T04:19:19.842Z,100.25
2023-05-07T04:22:31.007Z,132.10
2023-05-07T04:25:39.027Z,98.53
2023-05-07T04:28:52.911Z,103.35
2023-05-07T04:32:01.054Z,101.85
2023-05-07T04:35:11.413Z,159.90
2023-05-07T04:38:20.666Z,167.05
2023-05-07T04:41:32.176Z,137.25
2023-05-07T04:44:40.346Z,154.93
2023-05-07T04:47:48.532Z,99.28
2023-05-07T04:50:57.929Z,83.75
2023-05-07T04:54:05.967Z,60.63
2023-05-07T04:57:14.207Z,118.15
2023-05-07T05:00:24.281Z,73.03
2023-05-07T05:03:34.390Z,51.90
2023-05-07T05:06:44.277Z,70.72
2023-05-07T05:09:53.609Z,97.75
2023-05-07T05:13:01.921Z,68.70
2023-05-07T05:16:10.676Z,96.78
2023-05-07T05:19:19.424Z,259.83
2023-05-07T05:22:30.817Z,195.63
2023-05-07T05:25:40.207Z,141.77
2023-05-07T05:28:49.489Z,114.40
2023-05-07T05:32:00.619Z,76.22
2023-05-07T05:35:11.084Z,135.30
2023-05-07T05:38:21.880Z,157.23
2023-05-07T05:41:30.622Z,188.98
2023-05-07T05:44:39.233Z,137.13
2023-05-07T05:47:47.129Z,175.18
2023-05-07T05:50:55.928Z,163.95
2023-05-07T05:54:05.645Z,146.40
2023-05-07T05:57:14.831Z,132.93
2023-05-07T06:00:23.582Z,142.23
2023-05-07T06:03:39.985Z,36.03
2023-05-07T06:06:53.918Z,54.55
2023-05-07T06:10:04.468Z,142.45
2023-05-07T06:13:14.417Z,297.80
2023-05-07T06:16:23.855Z,400.27
2023-05-07T06:19:32.271Z,226.50
2023-05-07T06:22:41.179Z,262.42
2023-05-07T06:25:52.746Z,59.90
2023-05-07T06:29:05.414Z,35.58
2023-05-07T06:32:14.362Z,40.53
2023-05-07T06:35:24.699Z,31.33
2023-05-07T06:38:32.790Z,43.58
2023-05-07T06:41:42.304Z,19.65
2023-05-07T06:44:59.409Z,64.68
2023-05-07T06:48:10.812Z,66.30
2023-05-07T06:51:28.138Z,9.63
2023-05-07T06:54:37.254Z,16.05
2023-05-07T06:57:46.712Z,73.13
2023-05-07T07:00:55.713Z,90.72
2023-05-07T07:04:05.383Z,117.38
2023-05-07T07:07:14.246Z,101.90
2023-05-07T07:10:24.609Z,72.15
2023-05-07T07:13:35.426Z,68.13
2023-05-07T07:16:43.369Z,53.83
2023-05-07T07:19:51.261Z,89.10
2023-05-07T07:23:00.592Z,80.25
2023-05-07T07:26:08.654Z,119.47
2023-05-07T07:29:19.572Z,105.10
2023-05-07T07:32:28.273Z,117.95
2023-05-07T07:35:36.242Z,133.57
2023-05-07T07:38:46.259Z,173.50
2023-05-07T07:41:54.785Z,195.35
2023-05-07T07:45:05.459Z,22.15
2023-05-07T07:48:16.981Z,2.60
2023-05-07T07:51:24.807Z,2.35
2023-05-07T07:54:33.382Z,2.15
2023-05-07T07:57:42.018Z,2.00
2023-05-07T08:00:52.064Z,2.78
2023-05-07T08:04:00.082Z,2.83
2023-05-07T08:07:10.453Z,34.45
2023-05-07T08:10:22.542Z,37.55
2023-05-07T08:13:34.721Z,27.92
2023-05-07T08:16:43.953Z,45.72
2023-05-07T08:19:52.136Z,52.03
2023-05-07T08:23:00.713Z,61.08
2023-05-07T08:26:10.969Z,75.43
2023-05-07T08:29:19.390Z,101.40
2023-05-07T08:32:30.113Z,93.72
2023-05-07T08:35:38.684Z,178.60
2023-05-07T08:38:48.182Z,241.23
2023-05-07T08:41:57.461Z,147.05
2023-05-07T08:45:09.297Z,199.63
2023-05-07T08:48:19.028Z,189.23
2023-05-07T08:51:36.842Z,206.73
2023-05-07T08:54:45.370Z,201.48
2023-05-07T08:57:54.670Z,501.80
2023-05-07T09:01:03.630Z,186.23
2023-05-07T09:04:14.321Z,184.15
2023-05-07T09:07:23.395Z,204.90
2023-05-07T09:10:31.849Z,578.00
2023-05-07T09:13:39.933Z,199.27
2023-05-07T09:16:48.740Z,215.95
2023-05-07T09:19:58.217Z,174.00
2023-05-07T09:23:06.666Z,217.23
2023-05-07T09:26:15.033Z,373.27
2023-05-07T09:29:24.470Z,631.90
2023-05-07T09:32:32.645Z,673.78
2023-05-07T09:35:41.771Z,742.85
2023-05-07T09:38:57.510Z,342.60
2023-05-07T09:42:05.657Z,331.15
2023-05-07T09:45:17.224Z,270.95
2023-05-07T09:48:25.012Z,337.85
2023-05-07T09:51:41.775Z,697.08
2023-05-07T09:54:50.813Z,208.07
2023-05-07T09:58:00.922Z,233.60
2023-05-07T10:01:10.379Z,235.15
2023-05-07T10:04:18.692Z,211.55
2023-05-07T10:07:29.072Z,212.75
2023-05-07T10:10:41.180Z,228.68
2023-05-07T10:13:52.225Z,643.60
2023-05-07T10:17:00.374Z,254.40
2023-05-07T10:20:10.305Z,323.10
2023-05-07T10:23:25.659Z,736.30
2023-05-07T10:26:37.622Z,167.00
2023-05-07T10:29:50.844Z,264.83
2023-05-07T10:33:06.520Z,531.80
2023-05-07T10:36:15.366Z,581.55
2023-05-07T10:39:24.934Z,361.42
2023-05-07T10:42:33.339Z,719.83
2023-05-07T10:45:41.876Z,575.55
2023-05-07T10:49:08.302Z,828.70
2023-05-07T10:52:48.352Z,673.53
2023-05-07T10:56:38.826Z,495.13
2023-05-07T10:59:54.735Z,660.55
2023-05-07T11:03:09.048Z,178.07
2023-05-07T11:06:35.497Z,171.35
2023-05-07T11:10:06.330Z,157.68
2023-05-07T11:13:45.668Z,154.48
2023-05-07T11:17:05.679Z,169.93
2023-05-07T11:20:14.743Z,156.45
2023-05-07T11:24:00.995Z,128.07
2023-05-07T11:27:26.796Z,153.85
2023-05-07T11:30:37.906Z,159.15
2023-05-07T11:33:50.200Z,183.15
2023-05-07T11:37:01.113Z,187.30
2023-05-07T11:40:29.608Z,211.90
2023-05-07T11:43:37.880Z,226.75
2023-05-07T11:46:46.147Z,220.50
2023-05-07T11:49:56.241Z,226.63
2023-05-07T11:53:09.705Z,223.13
2023-05-07T11:56:18.243Z,280.23
2023-05-07T11:59:26.088Z,387.73
2023-05-07T12:02:36.001Z,232.32
2023-05-07T12:05:45.705Z,270.83
2023-05-07T12:08:53.494Z,343.23
2023-05-07T12:12:05.745Z,516.58
2023-05-07T12:15:13.769Z,384.40
2023-05-07T12:18:21.871Z,261.58
2023-05-07T12:21:31.573Z,359.20
2023-05-07T12:24:46.729Z,387.00
2023-05-07T12:27:54.517Z,759.15
2023-05-07T12:31:02.401Z,407.05
2023-05-07T12:34:10.290Z,258.27
2023-05-07T12:37:25.136Z,368.45
2023-05-07T12:40:39.706Z,416.52
2023-05-07T12:43:47.949Z,354.45
2023-05-07T12:46:56.029Z,121.25
2023-05-07T12:50:04.209Z,182.27
2023-05-07T12:53:14.161Z,394.15
2023-05-07T12:56:21.988Z,136.00
2023-05-07T12:59:33.950Z,185.77
2023-05-07T13:02:42.538Z,474.25
2023-05-07T13:05:50.403Z,439.73
2023-05-07T13:08:59.858Z,257.83
2023-05-07T13:12:08.080Z,389.35
2023-05-07T13:15:16.000Z,299.52
2023-05-07T13:18:24.395Z,366.23
2023-05-07T13:21:32.804Z,256.60
2023-05-07T13:24:44.600Z,417.88
2023-05-07T13:28:02.749Z,106.53
2023-05-07T13:31:14.809Z,119.38
2023-05-07T13:34:22.944Z,139.18
2023-05-07T13:37:30.984Z,387.02
2023-05-07T13:40:40.557Z,281.92
2023-05-07T13:43:48.495Z,149.90
2023-05-07T13:46:56.989Z,265.77
2023-05-07T13:50:05.300Z,309.38
2023-05-07T13:53:13.414Z,426.33
2023-05-07T13:56:22.777Z,634.45
2023-05-07T13:59:30.570Z,265.42
2023-05-07T14:02:38.704Z,358.75
2023-05-07T14:05:48.811Z,205.25
2023-05-07T14:08:59.126Z,381.58
2023-05-07T14:12:08.999Z,310.42
2023-05-07T14:15:17.035Z,410.75
2023-05-07T14:18:25.003Z,358.05
2023-05-07T14:21:33.279Z,314.10
2023-05-07T14:24:41.544Z,155.73
2023-05-07T14:27:50.824Z,140.88
2023-05-07T14:30:59.136Z,217.48
2023-05-07T14:34:06.958Z,209.50
2023-05-07T14:37:15.018Z,242.98
2023-05-07T14:40:23.179Z,255.77
2023-05-07T14:43:32.425Z,273.40
2023-05-07T14:46:40.397Z,279.35
2023-05-07T14:49:48.430Z,227.75
2023-05-07T14:52:56.290Z,195.50
2023-05-07T14:56:04.617Z,211.50
2023-05-07T14:59:13.940Z,223.88
2023-05-07T15:02:22.161Z,70.40
2023-05-07T15:05:30.215Z,238.00
2023-05-07T15:08:38.426Z,92.28
2023-05-07T15:11:46.361Z,218.45
2023-05-07T15:14:56.044Z,183.05
2023-05-07T15:18:04.179Z,155.23
2023-05-07T15:21:12.342Z,262.08
2023-05-07T15:24:21.896Z,420.00
2023-05-07T15:27:29.984Z,423.45
2023-05-07T15:30:39.349Z,304.75
2023-05-07T15:33:48.488Z,434.38
2023-05-07T15:36:57.837Z,88.40
2023-05-07T15:40:07.693Z,115.32
2023-05-07T15:43:15.636Z,229.35
2023-05-07T15:46:26.910Z,62.92
2023-05-07T15:49:35.007Z,120.35
2023-05-07T15:52:43.149Z,247.70
2023-05-07T15:55:51.241Z,134.18
2023-05-07T15:58:59.753Z,161.93
2023-05-07T16:02:09.137Z,229.40
2023-05-07T16:05:17.775Z,179.90
2023-05-07T16:08:26.010Z,279.33
2023-05-07T16:11:34.612Z,131.70
2023-05-07T16:14:42.798Z,106.68
2023-05-07T16:17:57.651Z,112.00
2023-05-07T16:21:06.491Z,116.38
2023-05-07T16:24:14.457Z,97.70
2023-05-07T16:27:22.464Z,127.80
2023-05-07T16:30:30.541Z,125.88
2023-05-07T16:33:39.933Z,154.60
2023-05-07T16:36:47.690Z,165.27
2023-05-07T16:39:56.432Z,160.85
2023-05-07T16:43:05.319Z,139.82
2023-05-07T16:46:13.492Z,160.32
2023-05-07T16:49:22.706Z,198.43
2023-05-07T16:52:31.271Z,154.13
2023-05-07T16:55:39.507Z,191.52
2023-05-07T16:58:47.380Z,207.52
2023-05-07T17:01:56.981Z,197.23
2023-05-07T17:05:07.697Z,179.27
2023-05-07T17:08:15.536Z,189.25
2023-05-07T17:11:24.425Z,211.98
2023-05-07T17:14:32.552Z,201.63
2023-05-07T17:17:41.318Z,220.38
2023-05-07T17:20:50.836Z,216.63
2023-05-07T17:23:59.089Z,240.88
2023-05-07T17:27:07.321Z,206.15
2023-05-07T17:30:16.402Z,234.23
2023-05-07T17:33:24.188Z,244.57
2023-05-07T17:36:34.000Z,316.88
2023-05-07T17:39:42.073Z,382.08
2023-05-07T17:42:50.354Z,233.10
2023-05-07T17:45:58.899Z,231.20
2023-05-07T17:49:06.715Z,254.90
2023-05-07T17:52:16.126Z,531.75
2023-05-07T17:55:24.111Z,177.93
2023-05-07T17:58:32.905Z,392.35
2023-05-07T18:01:42.140Z,383.02
2023-05-07T18:04:50.323Z,354.17
2023-05-07T18:07:59.843Z,267.08
2023-05-07T18:11:08.041Z,212.55
2023-05-07T18:14:16.047Z,192.50
2023-05-07T18:17:26.390Z,99.18
2023-05-07T18:20:34.234Z,101.38
2023-05-07T18:23:43.722Z,95.38
2023-05-07T18:26:51.853Z,81.70
2023-05-07T18:29:59.841Z,67.50
2023-05-07T18:33:08.070Z,64.55
2023-05-07T18:36:15.924Z,55.67
2023-05-07T18:39:25.249Z,68.68
2023-05-07T18:42:36.243Z,71.75
2023-05-07T18:45:45.537Z,93.57
2023-05-07T18:48:54.855Z,84.80
2023-05-07T18:52:03.019Z,80.90
2023-05-07T18:55:13.359Z,47.88
2023-05-07T18:58:21.201Z,79.53
2023-05-07T19:01:29.311Z,79.38
2023-05-07T19:04:37.458Z,66.32
2023-05-07T19:07:46.080Z,80.55
2023-05-07T19:10:57.618Z,98.35
2023-05-07T19:14:05.800Z,131.93
2023-05-07T19:17:14.162Z,234.32
2023-05-07T19:20:22.128Z,78.05
2023-05-07T19:23:30.627Z,163.13
2023-05-07T19:26:41.154Z,24.95
2023-05-07T19:29:49.302Z,1.75
2023-05-07T19:32:57.423Z,2.55
2023-05-07T19:36:06.008Z,28.33
2023-05-07T19:39:14.840Z,7.80
2023-05-07T19:42:24.294Z,13.85
2023-05-07T19:45:32.583Z,21.40
2023-05-07T19:48:40.501Z,126.10
2023-05-07T19:51:48.496Z,5.18
2023-05-07T19:54:57.165Z,6.95
2023-05-07T19:58:06.715Z,4.97
2023-05-07T20:01:14.929Z,5.75
2023-05-07T20:04:22.754Z,3.03
2023-05-07T20:07:31.023Z,17.95
2023-05-07T20:10:39.099Z,24.00
2023-05-07T20:13:48.538Z,29.75
2023-05-07T20:16:56.525Z,50.47
2023-05-07T20:20:05.106Z,86.63
2023-05-07T20:23:13.183Z,70.18
2023-05-07T20:26:21.297Z,121.97
2023-05-07T20:29:30.776Z,68.07
2023-05-07T20:32:38.665Z,36.38
2023-05-07T20:35:46.667Z,9.68
2023-05-07T20:38:54.672Z,13.98
2023-05-07T20:42:02.673Z,20.60
2023-05-07T20:45:13.073Z,7.93
2023-05-07T20:48:21.335Z,33.55
2023-05-07T20:51:29.506Z,28.40
2023-05-07T20:54:40.091Z,26.02
2023-05-07T20:57:48.129Z,27.27
2023-05-07T21:00:57.770Z,25.13
2023-05-07T21:04:05.680Z,22.23
2023-05-07T21:07:13.923Z,58.38
2023-05-07T21:10:21.827Z,16.17
2023-05-07T21:13:29.953Z,3.78
2023-05-07T21:16:40.651Z,8.18
2023-05-07T21:19:49.623Z,9.25
2023-05-07T21:22:57.624Z,11.20
2023-05-07T21:26:05.726Z,30.08
2023-05-07T21:29:13.856Z,46.50
2023-05-07T21:32:23.223Z,24.45
2023-05-07T21:35:31.386Z,40.60
2023-05-07T21:38:40.039Z,113.88
2023-05-07T21:41:47.966Z,48.70
2023-05-07T21:44:56.046Z,65.10
2023-05-07T21:48:05.963Z,88.90
2023-05-07T21:51:14.069Z,116.82
2023-05-07T21:54:21.852Z,87.57
2023-05-07T21:57:29.689Z,66.22
2023-05-07T22:00:38.336Z,77.75
2023-05-07T22:03:47.552Z,73.68
2023-05-07T22:06:55.554Z,10.98
2023-05-07T22:10:03.343Z,19.05
2023-05-07T22:13:11.777Z,7.90
2023-05-07T22:16:19.683Z,29.45
2023-05-07T22:19:29.315Z,38.95
2023-05-07T22:22:47.509Z,40.35
2023-05-07T22:25:56.871Z,87.13
2023-05-07T22:29:04.601Z,101.30
2023-05-07T22:32:13.037Z,97.03
2023-05-07T22:35:22.566Z,116.03
2023-05-07T22:38:30.374Z,60.67
2023-05-07T22:41:38.375Z,176.88
2023-05-07T22:44:46.624Z,85.93
2023-05-07T22:47:54.573Z,34.83
2023-05-07T22:51:04.043Z,29.77
2023-05-07T22:54:12.104Z,8.20
2023-05-07T22:57:20.324Z,9.88
2023-05-07T23:00:28.532Z,3.30
2023-05-07T23:03:36.512Z,2.25
2023-05-07T23:06:46.272Z,2.78
2023-05-07T23:09:53.961Z,3.55
2023-05-07T23:13:02.798Z,4.38
2023-05-07T23:16:11.041Z,3.65
2023-05-07T23:19:18.923Z,3.08
2023-05-07T23:22:28.067Z,3.00
2023-05-07T23:25:36.090Z,7.25
2023-05-07T23:28:44.152Z,9.65
2023-05-07T23:31:52.731Z,14.60
2023-05-07T23:35:00.754Z,6.63
2023-05-07T23:38:10.291Z,17.00
2023-05-07T23:41:18.376Z,13.90
2023-05-07T23:44:26.600Z,58.42
2023-05-07T23:47:34.848Z,2.85
2023-05-07T23:50:42.964Z,2.03
2023-05-07T23:53:52.403Z,1.83
2023-05-07T23:57:01.020Z,2.17
